Sydney, New South Wales

10:38 AM EST on August 21, 2014 (GMT +1000)
Kingsford Smith International | Change Station
CLOSE
Current Station
Airport
Location: Sydney,
Elevation: 20 ft
Nearby Weather Stations

Elev 20 ft 33.95 °S, 151.17 °E | Updated 38 minutes ago

Scattered Clouds
Scattered Clouds
55 °F
Feels Like 55 °F
N
14
Wind Variable Wind from SSW

Today
High -- | Low -- °F
--% Chance of Precip.
Yesterday
High -- | Low -- °F
Precip. -- in
6:28 AM 5:29 PM
Waning Crescent, 18% visible
Pressure 30.39 in
Visibility 5.6 miles
Clouds Few 1000 ft
Scattered Clouds 2000 ft
Dew Point 52 °F
Humidity 88%
Rainfall 0.00 in
Snow Depth Not available.
UV 0 out of 12
Pollen Not available.
Air Quality Not available.
Flu Activity Not available.
METAR YSSY 210000Z 21012KT 9000 VCSH FEW010 SCT020 13/11 Q1029 INTER 0030/0300 5000 SHRA BKN010

More Conditions Fewer Conditions

Pressure 30.39 in
Visibility 5.6 miles
Clouds Few 1000 ft
Scattered Clouds 2000 ft
Dew Point 52 °F
Humidity 88%
Rainfall 0.00 in
Snow Depth Not available.
UV 0 out of 12
Pollen Not available.
Air Quality Not available.
Flu Activity Not available.
METAR YSSY 210000Z 21012KT 9000 VCSH FEW010 SCT020 13/11 Q1029 INTER 0030/0300 5000 SHRA BKN010

More Conditions Fewer Conditions

10-Day Weather Forecast

Almanac

Astronomy

Aug. 21, 2014 Rise Set
Actual Time 6:28 AM EST 5:29 PM EST
Civil Twilight 6:02 AM EST 5:54 PM EST
Nautical Twilight 5:33 AM EST 6:24 PM EST
Astronomical Twilight 5:04 AM EST 6:53 PM EST
Moon 3:09 AM EST 1:46 PM EST
Length of Visible Light 11h 52m
Length of Day
11h 01m
Tomorrow will be 1m 54s longer.
Waning Crescent, 18% of the Moon is Illuminated
Aug 20
Waning Crescent
Aug 25
New
Sep 2
First Quarter
Sep 8
Full
Sep 15
Last Quarter

Yesterday's Extremes

Country Highs Country Lows

Community

WunderPhotos

Upload Photos

1,745,811 photos uploaded!

WunderBlogs® & News

Nearby

Snow Depth

Not available.

Earthquake Activity

City Distance Mag. Time & Date
No recent earthquake activity has been reported nearby.
Minimum magnitude displayed is 2.5.

Coastal Water Temperatures

Place Temperature
No Stations Reporting

Nearby Weather Stations